createdAt,value
2022-11-30T00:00:06.850Z,66.27
2022-11-30T00:03:08.913Z,65.93
2022-11-30T00:06:13.493Z,61.17
2022-11-30T00:09:15.529Z,70.53
2022-11-30T00:12:18.260Z,62.20
2022-11-30T00:15:20.688Z,64.90
2022-11-30T00:18:23.098Z,73.93
2022-11-30T00:21:24.969Z,62.03
2022-11-30T00:24:27.679Z,63.63
2022-11-30T00:27:30.481Z,57.93
2022-11-30T00:30:32.536Z,59.27
2022-11-30T00:33:36.187Z,68.57
2022-11-30T00:36:38.215Z,58.87
2022-11-30T00:39:40.068Z,75.77
2022-11-30T00:42:43.123Z,66.53
2022-11-30T00:45:45.109Z,71.60
2022-11-30T00:48:47.198Z,72.87
2022-11-30T00:51:49.095Z,65.07
2022-11-30T00:54:51.319Z,76.27
2022-11-30T00:57:53.593Z,81.40
2022-11-30T01:00:55.562Z,64.53
2022-11-30T01:03:57.894Z,63.70
2022-11-30T01:06:59.798Z,69.83
2022-11-30T01:10:01.785Z,73.33
2022-11-30T01:13:04.120Z,64.20
2022-11-30T01:16:11.919Z,76.43
2022-11-30T01:19:14.359Z,78.33
2022-11-30T01:22:16.232Z,69.13
2022-11-30T01:25:18.465Z,57.90
2022-11-30T01:28:20.416Z,65.77
2022-11-30T01:31:27.062Z,67.97
2022-11-30T01:34:28.900Z,69.67
2022-11-30T01:37:30.860Z,66.33
2022-11-30T01:40:32.770Z,60.67
2022-11-30T01:43:45.268Z,64.07
2022-11-30T01:46:55.249Z,65.20
2022-11-30T01:50:18.201Z,67.43
2022-11-30T01:53:20.152Z,65.33
2022-11-30T01:56:22.249Z,82.47
2022-11-30T01:59:25.159Z,76.67
2022-11-30T02:02:50.818Z,88.00
2022-11-30T02:05:53.331Z,69.70
2022-11-30T02:08:55.694Z,72.23
2022-11-30T02:11:57.695Z,76.03
2022-11-30T02:15:16.285Z,61.10
2022-11-30T02:19:01.337Z,57.40
2022-11-30T02:22:26.918Z,60.20
2022-11-30T02:25:35.674Z,55.43
2022-11-30T02:29:03.765Z,59.60
2022-11-30T02:32:20.041Z,51.27
2022-11-30T02:35:27.233Z,59.70
2022-11-30T02:38:29.883Z,56.43
2022-11-30T02:41:38.149Z,62.83
2022-11-30T02:44:43.829Z,59.70
2022-11-30T02:48:00.670Z,57.07
2022-11-30T02:51:05.179Z,61.90
2022-11-30T02:54:08.242Z,57.67
2022-11-30T02:57:10.125Z,65.17
2022-11-30T03:00:14.421Z,60.07
2022-11-30T03:03:16.614Z,58.83
2022-11-30T03:06:18.552Z,65.53
2022-11-30T03:09:20.439Z,58.53
2022-11-30T03:12:22.739Z,59.03
2022-11-30T03:15:24.943Z,65.60
2022-11-30T03:18:27.251Z,57.67
2022-11-30T03:21:29.127Z,64.67
2022-11-30T03:24:31.290Z,67.83
2022-11-30T03:27:33.163Z,63.00
2022-11-30T03:30:35.194Z,67.47
2022-11-30T03:33:37.104Z,66.60
2022-11-30T03:36:39.105Z,65.03
2022-11-30T03:39:41.401Z,65.27
2022-11-30T03:42:43.787Z,60.20
2022-11-30T03:45:46.905Z,67.33
2022-11-30T03:48:48.829Z,92.00
2022-11-30T03:51:50.899Z,66.20
2022-11-30T03:54:52.879Z,61.37
2022-11-30T03:57:54.712Z,66.07
2022-11-30T04:01:08.919Z,71.43
2022-11-30T04:04:11.674Z,72.10
2022-11-30T04:07:13.662Z,68.43
2022-11-30T04:10:15.508Z,65.70
2022-11-30T04:13:18.421Z,75.37
2022-11-30T04:16:20.315Z,69.97
2022-11-30T04:19:23.177Z,65.30
2022-11-30T04:22:25.027Z,72.93
2022-11-30T04:25:27.009Z,74.47
2022-11-30T04:28:28.939Z,72.23
2022-11-30T04:31:31.377Z,75.87
2022-11-30T04:34:33.609Z,75.57
2022-11-30T04:37:45.153Z,72.60
2022-11-30T04:40:47.073Z,73.53
2022-11-30T04:43:49.063Z,78.93
2022-11-30T04:46:50.972Z,76.37
2022-11-30T04:49:53.137Z,88.40
2022-11-30T04:52:55.114Z,74.47
2022-11-30T04:55:57.125Z,87.57
2022-11-30T04:58:59.465Z,79.53
2022-11-30T05:02:01.751Z,76.70
2022-11-30T05:05:03.824Z,77.27
2022-11-30T05:08:05.874Z,77.70
2022-11-30T05:11:07.703Z,76.43
2022-11-30T05:14:10.198Z,77.73
2022-11-30T05:17:12.051Z,81.87
2022-11-30T05:20:14.889Z,70.33
2022-11-30T05:23:17.359Z,79.27
2022-11-30T05:26:19.345Z,68.90
2022-11-30T05:29:21.240Z,92.97
2022-11-30T05:32:23.145Z,78.80
2022-11-30T05:35:25.292Z,92.17
2022-11-30T05:38:27.267Z,76.13
2022-11-30T05:41:29.158Z,82.57
2022-11-30T05:44:31.139Z,88.10
2022-11-30T05:47:33.209Z,81.23
2022-11-30T05:50:35.200Z,84.97
2022-11-30T05:53:37.250Z,96.77
2022-11-30T05:56:39.155Z,100.40
2022-11-30T05:59:41.443Z,74.10
2022-11-30T06:02:43.486Z,76.83
2022-11-30T06:05:45.474Z,74.40
2022-11-30T06:08:48.877Z,98.20
2022-11-30T06:11:51.264Z,76.37
2022-11-30T06:14:53.552Z,69.33
2022-11-30T06:17:56.550Z,73.60
2022-11-30T06:21:03.073Z,70.73
2022-11-30T06:24:05.199Z,73.57
2022-11-30T06:27:07.151Z,74.90
2022-11-30T06:30:10.018Z,69.10
2022-11-30T06:33:12.262Z,78.17
2022-11-30T06:36:14.198Z,63.13
2022-11-30T06:39:16.162Z,75.77
2022-11-30T06:42:19.817Z,85.00
2022-11-30T06:45:22.316Z,78.70
2022-11-30T06:48:24.566Z,71.80
2022-11-30T06:51:26.483Z,68.50
2022-11-30T06:54:28.905Z,74.20
2022-11-30T06:57:31.208Z,80.37
2022-11-30T07:00:34.216Z,70.63
2022-11-30T07:03:36.598Z,77.50
2022-11-30T07:06:38.926Z,67.73
2022-11-30T07:09:40.759Z,71.97
2022-11-30T07:12:42.715Z,63.73
2022-11-30T07:15:45.148Z,73.93
2022-11-30T07:18:47.193Z,74.80
2022-11-30T07:21:49.178Z,76.30
2022-11-30T07:25:10.009Z,66.53
2022-11-30T07:28:11.810Z,70.50
2022-11-30T07:31:16.676Z,67.67
2022-11-30T07:34:19.638Z,78.57
2022-11-30T07:37:21.947Z,77.00
2022-11-30T07:40:23.779Z,63.73
2022-11-30T07:43:25.685Z,71.93
2022-11-30T07:46:28.056Z,77.87
2022-11-30T07:49:30.154Z,77.93
2022-11-30T07:52:32.008Z,73.97
2022-11-30T07:55:34.238Z,81.83
2022-11-30T07:58:36.689Z,65.50
2022-11-30T08:01:38.778Z,67.40
2022-11-30T08:04:40.753Z,69.13
2022-11-30T08:07:46.120Z,81.77
2022-11-30T08:10:48.031Z,89.27
2022-11-30T08:13:50.175Z,66.87
2022-11-30T08:16:52.115Z,74.47
2022-11-30T08:19:54.154Z,66.13
2022-11-30T08:22:56.066Z,65.03
2022-11-30T08:26:03.258Z,64.10
2022-11-30T08:29:05.249Z,64.47
2022-11-30T08:32:07.640Z,71.77
2022-11-30T08:35:09.677Z,74.00
2022-11-30T08:38:11.669Z,65.77
2022-11-30T08:41:15.419Z,66.57
2022-11-30T08:44:17.408Z,60.53
2022-11-30T08:47:19.375Z,54.57
2022-11-30T08:50:21.646Z,56.77
2022-11-30T08:53:23.474Z,51.53
2022-11-30T08:56:25.414Z,48.83
2022-11-30T08:59:27.298Z,64.97
2022-11-30T09:02:29.339Z,57.73
2022-11-30T09:05:31.350Z,65.47
2022-11-30T09:08:39.468Z,62.80
2022-11-30T09:11:43.225Z,60.67
2022-11-30T09:14:47.746Z,59.60
2022-11-30T09:17:54.246Z,65.23
2022-11-30T09:21:06.665Z,61.80
2022-11-30T09:24:08.616Z,64.83
2022-11-30T09:27:10.555Z,66.87
2022-11-30T09:30:12.975Z,63.97
2022-11-30T09:33:14.903Z,60.93
2022-11-30T09:36:19.763Z,55.27
2022-11-30T09:39:21.924Z,54.30
2022-11-30T09:42:44.011Z,57.83
2022-11-30T09:45:53.690Z,55.37
2022-11-30T09:49:30.284Z,58.20
2022-11-30T09:52:36.383Z,65.47
2022-11-30T09:55:41.705Z,62.73
2022-11-30T09:58:50.786Z,50.27
2022-11-30T10:01:56.964Z,52.67
2022-11-30T10:05:00.049Z,50.53
2022-11-30T10:08:50.732Z,51.53
2022-11-30T10:12:22.176Z,52.63
2022-11-30T10:16:16.556Z,53.00
2022-11-30T10:19:48.147Z,43.53
2022-11-30T10:23:11.409Z,47.40
2022-11-30T10:26:17.195Z,55.23
2022-11-30T10:29:22.599Z,54.10
2022-11-30T10:32:31.132Z,51.47
2022-11-30T10:35:43.569Z,44.83
2022-11-30T10:38:51.760Z,44.27
2022-11-30T10:42:16.514Z,46.20
2022-11-30T10:45:21.786Z,44.43
2022-11-30T10:48:34.413Z,49.50
2022-11-30T10:51:38.169Z,40.93
2022-11-30T10:54:40.025Z,50.00
2022-11-30T10:57:42.904Z,49.17
2022-11-30T11:01:02.778Z,42.97
2022-11-30T11:04:11.092Z,44.43
2022-11-30T11:07:14.604Z,50.20
2022-11-30T11:10:21.536Z,44.33
2022-11-30T11:13:40.955Z,48.20
2022-11-30T11:17:17.750Z,44.80
2022-11-30T11:20:42.880Z,40.67
2022-11-30T11:23:46.139Z,54.37
2022-11-30T11:26:51.993Z,47.80
2022-11-30T11:30:06.480Z,43.27
2022-11-30T11:33:12.656Z,45.83
2022-11-30T11:36:16.747Z,39.10
2022-11-30T11:39:26.422Z,46.90
2022-11-30T11:42:32.101Z,43.37
2022-11-30T11:45:37.917Z,43.80
2022-11-30T11:48:42.336Z,37.87
2022-11-30T11:51:45.832Z,48.30
2022-11-30T11:55:25.316Z,45.17
2022-11-30T11:58:42.195Z,45.97
2022-11-30T12:01:49.698Z,41.03
2022-11-30T12:04:54.973Z,41.57
2022-11-30T12:08:06.011Z,39.43
2022-11-30T12:11:37.349Z,46.63
2022-11-30T12:14:39.318Z,38.90
2022-11-30T12:17:59.554Z,42.87
2022-11-30T12:21:14.835Z,41.90
2022-11-30T12:24:28.130Z,34.17
2022-11-30T12:27:53.644Z,33.63
2022-11-30T12:31:14.895Z,42.90
2022-11-30T12:34:49.295Z,38.03
2022-11-30T12:38:10.998Z,40.33
2022-11-30T12:41:22.084Z,40.03
2022-11-30T12:44:45.654Z,35.30
2022-11-30T12:48:12.358Z,33.70
2022-11-30T12:51:39.108Z,31.43
2022-11-30T12:55:31.673Z,40.07
2022-11-30T12:58:49.896Z,35.50
2022-11-30T13:02:19.881Z,39.03
2022-11-30T13:05:30.713Z,38.43
2022-11-30T13:08:46.952Z,38.83
2022-11-30T13:11:55.563Z,39.50
2022-11-30T13:15:00.156Z,40.97
2022-11-30T13:18:02.890Z,42.40
2022-11-30T13:21:33.369Z,47.20
2022-11-30T13:24:40.060Z,38.53
2022-11-30T13:27:47.458Z,38.93
2022-11-30T13:31:09.044Z,39.57
2022-11-30T13:34:27.470Z,34.13
2022-11-30T13:37:29.379Z,37.70
2022-11-30T13:40:32.060Z,38.77
2022-11-30T13:43:48.117Z,36.20
2022-11-30T13:46:53.332Z,35.13
2022-11-30T13:50:01.222Z,39.03
2022-11-30T13:53:03.832Z,34.30
2022-11-30T13:56:19.133Z,36.70
2022-11-30T13:59:24.484Z,44.00
2022-11-30T14:02:52.603Z,37.17
2022-11-30T14:05:58.235Z,32.23
2022-11-30T14:09:00.184Z,38.80
2022-11-30T14:12:31.362Z,39.80
2022-11-30T14:15:39.346Z,41.87
2022-11-30T14:18:43.473Z,40.70
2022-11-30T14:21:45.399Z,41.40
2022-11-30T14:24:49.174Z,38.77
2022-11-30T14:27:55.683Z,44.37
2022-11-30T14:30:58.023Z,49.70
2022-11-30T14:34:15.015Z,44.17
2022-11-30T14:37:24.040Z,44.20
2022-11-30T14:40:30.466Z,43.43
2022-11-30T14:43:32.362Z,49.30
2022-11-30T14:46:36.054Z,49.97
2022-11-30T14:49:46.332Z,51.90
2022-11-30T14:53:06.438Z,47.50
2022-11-30T14:56:33.778Z,47.43
2022-11-30T14:59:55.827Z,47.07
2022-11-30T15:02:58.006Z,44.30
2022-11-30T15:06:02.132Z,54.50
2022-11-30T15:09:04.971Z,46.37
2022-11-30T15:12:07.088Z,50.83
2022-11-30T15:15:24.777Z,43.77
2022-11-30T15:18:26.958Z,45.13
2022-11-30T15:21:31.864Z,47.73
2022-11-30T15:24:33.745Z,44.73
2022-11-30T15:27:35.991Z,44.87
2022-11-30T15:30:40.798Z,41.33
2022-11-30T15:33:45.819Z,47.37
2022-11-30T15:36:47.937Z,45.20
2022-11-30T15:39:52.983Z,51.43
2022-11-30T15:42:55.052Z,52.60
2022-11-30T15:45:58.931Z,55.20
2022-11-30T15:49:19.024Z,53.17
2022-11-30T15:52:26.858Z,58.83
2022-11-30T15:55:46.092Z,47.00
2022-11-30T15:59:02.082Z,46.13
2022-11-30T16:02:14.834Z,49.97
2022-11-30T16:05:18.030Z,49.60
2022-11-30T16:08:19.974Z,47.27
2022-11-30T16:11:21.973Z,43.60
2022-11-30T16:14:24.408Z,41.50
2022-11-30T16:17:28.728Z,47.87
2022-11-30T16:20:31.096Z,46.67
2022-11-30T16:23:36.372Z,46.80
2022-11-30T16:26:53.609Z,41.90
2022-11-30T16:29:56.415Z,42.50
2022-11-30T16:32:59.117Z,47.23
2022-11-30T16:36:15.190Z,56.53
2022-11-30T16:39:17.119Z,45.13
2022-11-30T16:42:19.540Z,49.80
2022-11-30T16:45:23.592Z,50.03
2022-11-30T16:48:26.040Z,40.30
2022-11-30T16:51:32.522Z,45.33
2022-11-30T16:54:34.637Z,43.23
2022-11-30T16:57:36.484Z,40.07
2022-11-30T17:00:40.239Z,40.53
2022-11-30T17:03:46.323Z,45.50
2022-11-30T17:06:50.729Z,41.50
2022-11-30T17:09:53.618Z,43.70
2022-11-30T17:12:55.798Z,45.43
2022-11-30T17:15:57.684Z,44.33
2022-11-30T17:18:59.897Z,41.20
2022-11-30T17:22:02.027Z,43.73
2022-11-30T17:25:05.418Z,40.77
2022-11-30T17:28:07.319Z,44.50
2022-11-30T17:31:10.907Z,46.77
2022-11-30T17:34:12.983Z,42.93
2022-11-30T17:37:14.876Z,44.57
2022-11-30T17:40:17.050Z,46.00
2022-11-30T17:43:18.903Z,48.40
2022-11-30T17:46:21.654Z,47.00
2022-11-30T17:49:24.323Z,44.60
2022-11-30T17:52:26.412Z,42.83
2022-11-30T17:55:28.358Z,45.03
2022-11-30T17:58:34.630Z,41.97
2022-11-30T18:01:38.465Z,44.77
2022-11-30T18:04:40.679Z,47.10
2022-11-30T18:07:42.536Z,44.70
2022-11-30T18:10:47.123Z,42.47
2022-11-30T18:13:52.092Z,48.40
2022-11-30T18:16:54.118Z,41.73
2022-11-30T18:19:56.045Z,42.50
2022-11-30T18:22:57.972Z,44.20
2022-11-30T18:25:59.864Z,39.93
2022-11-30T18:29:02.815Z,44.70
2022-11-30T18:32:05.143Z,42.83
2022-11-30T18:35:08.323Z,42.57
2022-11-30T18:38:10.195Z,40.97
2022-11-30T18:41:12.673Z,42.93
2022-11-30T18:44:14.602Z,44.97
2022-11-30T18:47:16.792Z,46.57
2022-11-30T18:50:18.732Z,42.60
2022-11-30T18:53:20.691Z,46.07
2022-11-30T18:56:22.629Z,45.47
2022-11-30T18:59:24.649Z,43.93
2022-11-30T19:02:26.632Z,44.50
2022-11-30T19:05:40.307Z,42.77
2022-11-30T19:08:42.290Z,38.23
2022-11-30T19:11:44.973Z,42.80
2022-11-30T19:14:47.070Z,41.90
2022-11-30T19:17:49.272Z,42.40
2022-11-30T19:20:51.186Z,47.03
2022-11-30T19:23:53.475Z,40.87
2022-11-30T19:26:55.345Z,43.00
2022-11-30T19:29:57.349Z,49.97
2022-11-30T19:32:59.195Z,46.23
2022-11-30T19:36:02.544Z,46.77
2022-11-30T19:39:04.763Z,46.60
2022-11-30T19:42:07.710Z,46.27
2022-11-30T19:45:10.292Z,47.00
2022-11-30T19:48:12.966Z,47.17
2022-11-30T19:51:18.631Z,41.87
2022-11-30T19:54:21.625Z,37.57
2022-11-30T19:57:23.513Z,42.37
2022-11-30T20:00:26.093Z,42.47
2022-11-30T20:03:28.176Z,42.97
2022-11-30T20:06:36.282Z,39.63
2022-11-30T20:09:38.607Z,43.67
2022-11-30T20:12:41.341Z,43.83
2022-11-30T20:15:43.594Z,42.47
2022-11-30T20:18:52.493Z,46.33
2022-11-30T20:21:54.434Z,45.93
2022-11-30T20:24:56.515Z,40.27
2022-11-30T20:27:59.563Z,41.70
2022-11-30T20:31:04.394Z,44.20
2022-11-30T20:34:08.313Z,46.20
2022-11-30T20:37:11.024Z,41.03
2022-11-30T20:40:13.123Z,39.47
2022-11-30T20:43:15.693Z,44.97
2022-11-30T20:46:20.958Z,37.50
2022-11-30T20:49:23.056Z,42.17
2022-11-30T20:52:24.928Z,39.00
2022-11-30T20:55:26.993Z,46.70
2022-11-30T20:58:29.063Z,45.80
2022-11-30T21:01:31.170Z,42.00
2022-11-30T21:04:33.197Z,44.23
2022-11-30T21:07:35.444Z,44.67
2022-11-30T21:10:40.990Z,42.60
2022-11-30T21:13:44.490Z,46.40
2022-11-30T21:16:46.599Z,41.07
2022-11-30T21:19:48.568Z,47.50
2022-11-30T21:22:51.380Z,47.87
2022-11-30T21:25:53.344Z,45.47
2022-11-30T21:28:59.997Z,46.43
2022-11-30T21:32:01.966Z,47.97
2022-11-30T21:35:03.960Z,48.20
2022-11-30T21:38:05.923Z,42.27
2022-11-30T21:41:07.954Z,42.00
2022-11-30T21:44:14.172Z,44.83
2022-11-30T21:47:16.100Z,41.93
2022-11-30T21:50:21.795Z,41.60
2022-11-30T21:53:27.094Z,46.73
2022-11-30T21:56:34.978Z,44.33
2022-11-30T21:59:36.849Z,39.80
2022-11-30T22:02:38.939Z,44.07
2022-11-30T22:05:40.853Z,46.30
2022-11-30T22:08:43.143Z,42.97
2022-11-30T22:11:45.833Z,40.60
2022-11-30T22:14:47.854Z,47.90
2022-11-30T22:17:52.073Z,43.77
2022-11-30T22:21:03.467Z,44.50
2022-11-30T22:24:07.899Z,43.17
2022-11-30T22:27:09.892Z,41.17
2022-11-30T22:30:12.390Z,44.17
2022-11-30T22:33:16.209Z,45.10
2022-11-30T22:36:22.994Z,39.13
2022-11-30T22:39:24.894Z,41.13
2022-11-30T22:42:26.703Z,41.33
2022-11-30T22:45:31.120Z,48.57
2022-11-30T22:48:34.693Z,45.77
2022-11-30T22:51:38.353Z,46.23
2022-11-30T22:54:40.256Z,45.60
2022-11-30T22:57:42.754Z,44.27
2022-11-30T23:00:44.643Z,43.77
2022-11-30T23:03:48.175Z,50.00
2022-11-30T23:06:50.504Z,43.10
2022-11-30T23:09:52.633Z,51.67
2022-11-30T23:13:01.456Z,46.20
2022-11-30T23:16:04.993Z,53.60
2022-11-30T23:19:07.125Z,54.70
2022-11-30T23:22:09.060Z,46.33
2022-11-30T23:25:10.939Z,50.37
2022-11-30T23:28:12.828Z,49.77
2022-11-30T23:31:34.347Z,45.00
2022-11-30T23:34:37.864Z,46.57
2022-11-30T23:37:39.689Z,50.73
2022-11-30T23:40:41.660Z,48.10
2022-11-30T23:43:43.595Z,54.63
2022-11-30T23:46:45.669Z,49.67
2022-11-30T23:49:47.800Z,48.13
2022-11-30T23:52:49.990Z,46.73
2022-11-30T23:55:52.672Z,46.43
2022-11-30T23:58:54.690Z,48.70
